sensor_id;sensor_type;location;lat;lon;timestamp;pressure;altitude;pressure_sealevel;temperature;humidity
9738;BME280;4908;47.446;13.900;2024-01-06T07:17:50;91589.78;;;0.80;100.00
9738;BME280;4908;47.446;13.900;2024-01-06T07:20:17;91587.25;;;0.87;100.00
9738;BME280;4908;47.446;13.900;2024-01-06T07:22:45;91593.50;;;0.99;100.00
9738;BME280;4908;47.446;13.900;2024-01-06T07:25:12;91602.22;;;1.03;100.00
9738;BME280;4908;47.446;13.900;2024-01-06T07:27:39;91596.66;;;1.08;100.00
9738;BME280;4908;47.446;13.900;2024-01-06T07:30:07;91600.00;;;1.05;100.00
9738;BME280;4908;47.446;13.900;2024-01-06T07:32:34;91608.72;;;1.09;100.00
9738;BME280;4908;47.446;13.900;2024-01-06T07:35:03;91615.56;;;1.13;100.00
9738;BME280;4908;47.446;13.900;2024-01-06T07:37:30;91617.16;;;1.18;100.00
9738;BME280;4908;47.446;13.900;2024-01-06T07:39:58;91619.38;;;1.16;100.00
9738;BME280;4908;47.446;13.900;2024-01-06T07:42:25;91620.19;;;1.20;100.00
9738;BME280;4908;47.446;13.900;2024-01-06T07:44:52;91628.53;;;1.22;100.00
9738;BME280;4908;47.446;13.900;2024-01-06T07:47:19;91624.72;;;1.19;100.00
9738;BME280;4908;47.446;13.900;2024-01-06T07:49:46;91633.09;;;1.25;100.00
9738;BME280;4908;47.446;13.900;2024-01-06T07:52:15;91631.53;;;1.20;100.00
9738;BME280;4908;47.446;13.900;2024-01-06T07:54:42;91638.59;;;1.16;100.00
9738;BME280;4908;47.446;13.900;2024-01-06T07:57:09;91628.47;;;1.18;100.00
9738;BME280;4908;47.446;13.900;2024-01-06T07:59:36;91632.25;;;1.21;100.00
9738;BME280;4908;47.446;13.900;2024-01-06T08:02:04;91650.50;;;1.29;100.00
9738;BME280;4908;47.446;13.900;2024-01-06T08:04:31;91649.72;;;1.29;100.00
9738;BME280;4908;47.446;13.900;2024-01-06T08:06:58;91655.56;;;1.19;100.00
9738;BME280;4908;47.446;13.900;2024-01-06T08:09:26;91664.59;;;1.18;100.00
9738;BME280;4908;47.446;13.900;2024-01-06T08:11:53;91662.09;;;1.25;100.00
9738;BME280;4908;47.446;13.900;2024-01-06T08:14:20;91657.38;;;1.15;100.00
9738;BME280;4908;47.446;13.900;2024-01-06T08:16:47;91658.50;;;1.14;100.00
9738;BME280;4908;47.446;13.900;2024-01-06T08:19:14;91668.72;;;0.96;100.00
9738;BME280;4908;47.446;13.900;2024-01-06T08:21:41;91669.97;;;1.02;100.00
9738;BME280;4908;47.446;13.900;2024-01-06T08:24:08;91668.22;;;1.10;100.00
9738;BME280;4908;47.446;13.900;2024-01-06T08:26:37;91680.38;;;1.14;100.00
9738;BME280;4908;47.446;13.900;2024-01-06T08:29:04;91681.94;;;1.19;100.00
9738;BME280;4908;47.446;13.900;2024-01-06T08:31:31;91678.31;;;1.27;100.00
9738;BME280;4908;47.446;13.900;2024-01-06T08:33:58;91692.06;;;1.36;100.00
9738;BME280;4908;47.446;13.900;2024-01-06T08:36:25;91685.41;;;1.23;100.00
9738;BME280;4908;47.446;13.900;2024-01-06T08:38:52;91683.34;;;1.13;100.00
9738;BME280;4908;47.446;13.900;2024-01-06T08:41:19;91689.44;;;1.17;100.00
9738;BME280;4908;47.446;13.900;2024-01-06T08:43:48;91692.47;;;1.19;100.00
9738;BME280;4908;47.446;13.900;2024-01-06T08:46:15;91691.53;;;1.08;100.00
9738;BME280;4908;47.446;13.900;2024-01-06T08:48:42;91704.44;;;1.13;100.00
9738;BME280;4908;47.446;13.900;2024-01-06T08:51:09;91702.34;;;1.22;100.00
9738;BME280;4908;47.446;13.900;2024-01-06T08:53:36;91702.91;;;1.12;100.00
9738;BME280;4908;47.446;13.900;2024-01-06T08:56:03;91700.06;;;1.20;100.00
9738;BME280;4908;47.446;13.900;2024-01-06T08:58:31;91693.38;;;1.26;100.00
9738;BME280;4908;47.446;13.900;2024-01-06T09:01:00;91702.84;;;1.08;100.00
9738;BME280;4908;47.446;13.900;2024-01-06T09:03:27;91699.28;;;1.20;100.00
9738;BME280;4908;47.446;13.900;2024-01-06T09:05:56;91708.44;;;1.26;100.00
9738;BME280;4908;47.446;13.900;2024-01-06T09:08:23;91710.72;;;1.27;100.00
9738;BME280;4908;47.446;13.900;2024-01-06T09:10:50;91713.16;;;1.36;100.00
9738;BME280;4908;47.446;13.900;2024-01-06T09:13:21;91718.09;;;1.18;100.00
9738;BME280;4908;47.446;13.900;2024-01-06T09:15:48;91713.88;;;0.95;100.00
9738;BME280;4908;47.446;13.900;2024-01-06T09:18:18;91721.50;;;1.00;100.00
9738;BME280;4908;47.446;13.900;2024-01-06T09:20:45;91720.81;;;1.03;100.00
9738;BME280;4908;47.446;13.900;2024-01-06T09:23:13;91715.53;;;1.03;100.00
9738;BME280;4908;47.446;13.900;2024-01-06T09:25:40;91710.53;;;0.98;100.00
9738;BME280;4908;47.446;13.900;2024-01-06T09:28:07;91715.38;;;1.15;100.00
9738;BME280;4908;47.446;13.900;2024-01-06T09:30:34;91710.66;;;1.24;100.00
9738;BME280;4908;47.446;13.900;2024-01-06T09:33:03;91716.88;;;1.35;100.00
9738;BME280;4908;47.446;13.900;2024-01-06T09:35:31;91720.00;;;1.40;100.00
9738;BME280;4908;47.446;13.900;2024-01-06T09:37:58;91721.53;;;1.41;100.00
9738;BME280;4908;47.446;13.900;2024-01-06T09:40:25;91721.53;;;1.41;100.00
9738;BME280;4908;47.446;13.900;2024-01-06T09:42:52;91715.59;;;1.48;100.00
9738;BME280;4908;47.446;13.900;2024-01-06T09:45:20;91717.97;;;1.53;100.00
9738;BME280;4908;47.446;13.900;2024-01-06T09:47:50;91713.25;;;1.43;100.00
9738;BME280;4908;47.446;13.900;2024-01-06T09:50:18;91715.59;;;1.48;100.00
9738;BME280;4908;47.446;13.900;2024-01-06T09:52:47;91712.69;;;1.53;100.00
9738;BME280;4908;47.446;13.900;2024-01-06T09:55:23;91715.94;;;1.24;100.00
9738;BME280;4908;47.446;13.900;2024-01-06T09:57:52;91715.22;;;1.27;100.00
9738;BME280;4908;47.446;13.900;2024-01-06T10:00:19;91715.94;;;1.24;100.00
9738;BME280;4908;47.446;13.900;2024-01-06T10:02:47;91720.66;;;1.34;100.00
9738;BME280;4908;47.446;13.900;2024-01-06T10:05:15;91713.19;;;1.39;100.00
9738;BME280;4908;47.446;13.900;2024-01-06T10:07:42;91717.81;;;1.46;100.00
9738;BME280;4908;47.446;13.900;2024-01-06T10:10:11;91717.03;;;1.42;100.00
9738;BME280;4908;47.446;13.900;2024-01-06T10:12:38;91718.72;;;1.53;100.00
9738;BME280;4908;47.446;13.900;2024-01-06T10:15:07;91718.94;;;1.45;100.00
9738;BME280;4908;47.446;13.900;2024-01-06T10:17:36;91721.00;;;1.55;100.00
9738;BME280;4908;47.446;13.900;2024-01-06T10:20:08;91713.69;;;1.45;100.00
9738;BME280;4908;47.446;13.900;2024-01-06T10:22:35;91714.03;;;1.43;100.00
9738;BME280;4908;47.446;13.900;2024-01-06T10:25:05;91711.88;;;1.49;100.00
9738;BME280;4908;47.446;13.900;2024-01-06T10:27:35;91709.38;;;1.37;100.00
9738;BME280;4908;47.446;13.900;2024-01-06T10:30:02;91711.16;;;1.52;100.00
9738;BME280;4908;47.446;13.900;2024-01-06T10:32:31;91709.84;;;1.42;100.00
9738;BME280;4908;47.446;13.900;2024-01-06T10:34:58;91711.97;;;1.56;100.00
9738;BME280;4908;47.446;13.900;2024-01-06T10:37:26;91706.84;;;1.63;100.00
9738;BME280;4908;47.446;13.900;2024-01-06T10:40:06;91700.84;;;1.66;100.00
9738;BME280;4908;47.446;13.900;2024-01-06T10:42:36;91704.66;;;1.68;100.00
9738;BME280;4908;47.446;13.900;2024-01-06T10:45:06;91703.22;;;1.71;100.00
9738;BME280;4908;47.446;13.900;2024-01-06T10:47:35;91702.13;;;1.75;100.00
9738;BME280;4908;47.446;13.900;2024-01-06T10:50:03;91702.59;;;1.81;100.00
9738;BME280;4908;47.446;13.900;2024-01-06T10:52:30;91707.22;;;1.88;100.00
9738;BME280;4908;47.446;13.900;2024-01-06T10:54:58;91694.06;;;1.65;100.00
9738;BME280;4908;47.446;13.900;2024-01-06T10:57:25;91699.84;;;1.74;100.00
9738;BME280;4908;47.446;13.900;2024-01-06T10:59:57;91694.00;;;1.84;100.00
9738;BME280;4908;47.446;13.900;2024-01-06T11:02:25;91701.91;;;1.84;100.00
9738;BME280;4908;47.446;13.900;2024-01-06T11:04:53;91698.25;;;1.92;100.00
9738;BME280;4908;47.446;13.900;2024-01-06T11:07:21;91693.03;;;1.73;100.00
9738;BME280;4908;47.446;13.900;2024-01-06T11:09:58;91687.06;;;1.76;100.00
9738;BME280;4908;47.446;13.900;2024-01-06T11:12:29;91689.00;;;1.79;100.00
9738;BME280;4908;47.446;13.900;2024-01-06T11:14:57;91693.00;;;1.92;100.00
9738;BME280;4908;47.446;13.900;2024-01-06T11:17:51;91693.81;;;1.96;100.00
9738;BME280;4908;47.446;13.900;2024-01-06T11:20:21;91687.84;;;2.03;100.00
9738;BME280;4908;47.446;13.900;2024-01-06T11:22:48;91687.63;;;1.89;100.00
9738;BME280;4908;47.446;13.900;2024-01-06T11:25:16;91691.50;;;1.95;100.00
9738;BME280;4908;47.446;13.900;2024-01-06T11:27:45;91686.56;;;1.93;100.00
9738;BME280;4908;47.446;13.900;2024-01-06T11:30:24;91686.28;;;1.98;100.00
9738;BME280;4908;47.446;13.900;2024-01-06T11:32:51;91687.63;;;1.89;100.00
9738;BME280;4908;47.446;13.900;2024-01-06T11:35:20;91677.97;;;1.96;100.00
9738;BME280;4908;47.446;13.900;2024-01-06T11:37:54;91683.31;;;1.77;100.00
9738;BME280;4908;47.446;13.900;2024-01-06T11:40:25;91678.03;;;1.54;100.00
9738;BME280;4908;47.446;13.900;2024-01-06T11:42:57;91670.94;;;1.81;100.00
9738;BME280;4908;47.446;13.900;2024-01-06T11:45:26;91675.06;;;1.78;100.00
9738;BME280;4908;47.446;13.900;2024-01-06T11:47:55;91669.66;;;1.94;100.00
9738;BME280;4908;47.446;13.900;2024-01-06T11:50:24;91671.06;;;1.88;100.00
9738;BME280;4908;47.446;13.900;2024-01-06T11:52:52;91671.34;;;1.83;100.00
9738;BME280;4908;47.446;13.900;2024-01-06T11:55:19;91672.63;;;1.93;100.00
9738;BME280;4908;47.446;13.900;2024-01-06T11:57:47;91672.69;;;1.96;100.00
9738;BME280;4908;47.446;13.900;2024-01-06T12:00:15;91670.56;;;2.05;100.00
9738;BME280;4908;47.446;13.900;2024-01-06T12:02:44;91667.69;;;1.91;100.00
9738;BME280;4908;47.446;13.900;2024-01-06T12:05:15;91665.72;;;1.85;100.00
9738;BME280;4908;47.446;13.900;2024-01-06T12:07:43;91664.19;;;1.83;100.00
9738;BME280;4908;47.446;13.900;2024-01-06T12:10:10;91664.19;;;1.83;100.00
9738;BME280;4908;47.446;13.900;2024-01-06T12:12:39;91659.56;;;1.77;100.00
9738;BME280;4908;47.446;13.900;2024-01-06T12:15:07;91662.91;;;1.74;100.00
9738;BME280;4908;47.446;13.900;2024-01-06T12:17:35;91669.81;;;1.82;100.00
9738;BME280;4908;47.446;13.900;2024-01-06T12:20:04;91669.28;;;1.73;100.00
9738;BME280;4908;47.446;13.900;2024-01-06T12:22:34;91663.63;;;1.71;100.00
9738;BME280;4908;47.446;13.900;2024-01-06T12:25:02;91669.25;;;1.69;100.00
9738;BME280;4908;47.446;13.900;2024-01-06T12:27:31;91668.00;;;1.86;100.00
9738;BME280;4908;47.446;13.900;2024-01-06T12:29:58;91673.56;;;1.81;100.00
9738;BME280;4908;47.446;13.900;2024-01-06T12:32:26;91670.19;;;1.80;100.00
9738;BME280;4908;47.446;13.900;2024-01-06T12:34:53;91671.06;;;1.88;100.00
9738;BME280;4908;47.446;13.900;2024-01-06T12:37:23;91660.59;;;1.95;100.00
9738;BME280;4908;47.446;13.900;2024-01-06T12:39:50;91659.78;;;1.91;100.00
9738;BME280;4908;47.446;13.900;2024-01-06T12:42:17;91664.25;;;1.87;100.00
9738;BME280;4908;47.446;13.900;2024-01-06T12:44:47;91667.97;;;1.83;100.00
9738;BME280;4908;47.446;13.900;2024-01-06T12:47:14;91659.56;;;1.77;100.00
9738;BME280;4908;47.446;13.900;2024-01-06T12:49:42;91659.16;;;1.75;100.00
9738;BME280;4908;47.446;13.900;2024-01-06T12:52:09;91664.72;;;1.70;100.00
9738;BME280;4908;47.446;13.900;2024-01-06T12:54:38;91667.06;;;1.75;100.00
9738;BME280;4908;47.446;13.900;2024-01-06T12:57:06;91655.56;;;1.87;100.00
9738;BME280;4908;47.446;13.900;2024-01-06T12:59:33;91662.72;;;1.86;100.00
9738;BME280;4908;47.446;13.900;2024-01-06T13:02:00;91660.38;;;1.81;100.00
9738;BME280;4908;47.446;13.900;2024-01-06T13:04:27;91654.34;;;1.80;100.00
9738;BME280;4908;47.446;13.900;2024-01-06T13:06:54;91654.69;;;1.79;100.00
9738;BME280;4908;47.446;13.900;2024-01-06T13:09:21;91651.34;;;1.82;100.00
9738;BME280;4908;47.446;13.900;2024-01-06T13:11:50;91656.63;;;1.82;100.00
9738;BME280;4908;47.446;13.900;2024-01-06T13:14:18;91657.59;;;1.97;100.00
9738;BME280;4908;47.446;13.900;2024-01-06T13:16:45;91658.13;;;1.83;100.00
9738;BME280;4908;47.446;13.900;2024-01-06T13:19:12;91667.34;;;1.93;100.00
9738;BME280;4908;47.446;13.900;2024-01-06T13:21:39;91662.81;;;1.93;100.00
9738;BME280;4908;47.446;13.900;2024-01-06T13:24:06;91663.47;;;1.87;100.00
9738;BME280;4908;47.446;13.900;2024-01-06T13:26:33;91667.19;;;1.82;100.00
9738;BME280;4908;47.446;13.900;2024-01-06T13:29:02;91665.19;;;1.98;100.00
9738;BME280;4908;47.446;13.900;2024-01-06T13:31:30;91670.50;;;2.02;100.00
9738;BME280;4908;47.446;13.900;2024-01-06T13:33:58;91660.38;;;1.81;100.00
9738;BME280;4908;47.446;13.900;2024-01-06T13:36:25;91668.59;;;1.76;100.00
9738;BME280;4908;47.446;13.900;2024-01-06T13:38:52;91667.69;;;1.91;100.00
9738;BME280;4908;47.446;13.900;2024-01-06T13:41:19;91663.38;;;1.79;100.00
9738;BME280;4908;47.446;13.900;2024-01-06T13:43:46;91667.78;;;1.72;100.00
9738;BME280;4908;47.446;13.900;2024-01-06T13:46:14;91664.41;;;1.75;100.00
9738;BME280;4908;47.446;13.900;2024-01-06T13:48:41;91667.69;;;1.65;100.00
9738;BME280;4908;47.446;13.900;2024-01-06T13:51:09;91670.81;;;1.74;100.00
9738;BME280;4908;47.446;13.900;2024-01-06T13:53:36;91676.41;;;1.69;100.00
9738;BME280;4908;47.446;13.900;2024-01-06T13:56:04;91672.94;;;1.65;100.00
9738;BME280;4908;47.446;13.900;2024-01-06T13:58:31;91669.09;;;1.59;100.00
9738;BME280;4908;47.446;13.900;2024-01-06T14:01:01;91667.44;;;1.51;100.00
9738;BME280;4908;47.446;13.900;2024-01-06T14:03:29;91665.97;;;1.53;100.00
9738;BME280;4908;47.446;13.900;2024-01-06T14:05:57;91659.41;;;1.66;100.00
9738;BME280;4908;47.446;13.900;2024-01-06T14:08:24;91659.59;;;1.54;100.00
9738;BME280;4908;47.446;13.900;2024-01-06T14:10:51;91663.47;;;1.38;100.00
9738;BME280;4908;47.446;13.900;2024-01-06T14:13:18;91663.16;;;1.43;100.00
9738;BME280;4908;47.446;13.900;2024-01-06T14:15:45;91662.75;;;1.41;100.00
9738;BME280;4908;47.446;13.900;2024-01-06T14:18:12;91668.72;;;1.38;100.00
9738;BME280;4908;47.446;13.900;2024-01-06T14:20:43;91667.19;;;1.37;100.00
9738;BME280;4908;47.446;13.900;2024-01-06T14:23:10;91664.66;;;1.44;100.00
9738;BME280;4908;47.446;13.900;2024-01-06T14:25:37;91672.56;;;1.44;100.00
9738;BME280;4908;47.446;13.900;2024-01-06T14:28:05;91669.88;;;1.40;100.00
9738;BME280;4908;47.446;13.900;2024-01-06T14:30:32;91672.06;;;1.35;100.00
9738;BME280;4908;47.446;13.900;2024-01-06T14:32:59;91669.47;;;1.38;100.00
9738;BME280;4908;47.446;13.900;2024-01-06T14:35:26;91669.56;;;1.42;100.00
9738;BME280;4908;47.446;13.900;2024-01-06T14:37:55;91670.75;;;1.48;100.00
9738;BME280;4908;47.446;13.900;2024-01-06T14:40:22;91669.72;;;1.52;100.00
9738;BME280;4908;47.446;13.900;2024-01-06T14:42:50;91672.00;;;1.54;100.00
9738;BME280;4908;47.446;13.900;2024-01-06T14:45:16;91675.34;;;1.51;100.00
9738;BME280;4908;47.446;13.900;2024-01-06T14:47:43;91675.75;;;1.53;100.00
9738;BME280;4908;47.446;13.900;2024-01-06T14:50:11;91676.22;;;1.58;100.00
9738;BME280;4908;47.446;13.900;2024-01-06T14:52:38;91678.88;;;1.58;100.00
9738;BME280;4908;47.446;13.900;2024-01-06T14:55:07;91683.25;;;1.51;100.00
9738;BME280;4908;47.446;13.900;2024-01-06T14:57:35;91678.41;;;1.53;100.00
9738;BME280;4908;47.446;13.900;2024-01-06T15:00:02;91684.09;;;1.55;100.00
9738;BME280;4908;47.446;13.900;2024-01-06T15:02:30;91681.81;;;1.53;100.00
9738;BME280;4908;47.446;13.900;2024-01-06T15:04:57;91690.06;;;1.52;100.00
9738;BME280;4908;47.446;13.900;2024-01-06T15:07:25;91695.56;;;1.66;100.00
9738;BME280;4908;47.446;13.900;2024-01-06T15:09:52;91691.69;;;1.60;100.00
9738;BME280;4908;47.446;13.900;2024-01-06T15:12:20;91693.28;;;1.42;100.00
9738;BME280;4908;47.446;13.900;2024-01-06T15:14:47;91690.25;;;1.40;100.00
9738;BME280;4908;47.446;13.900;2024-01-06T15:17:14;91694.13;;;1.27;100.00
9738;BME280;4908;47.446;13.900;2024-01-06T15:19:44;91694.00;;;1.20;100.00
9738;BME280;4908;47.446;13.900;2024-01-06T15:22:11;91689.16;;;1.22;100.00
9738;BME280;4908;47.446;13.900;2024-01-06T15:24:38;91697.75;;;1.19;100.00
9738;BME280;4908;47.446;13.900;2024-01-06T15:27:05;91697.84;;;1.22;100.00
9738;BME280;4908;47.446;13.900;2024-01-06T15:29:34;91694.06;;;1.23;100.00
9738;BME280;4908;47.446;13.900;2024-01-06T15:32:01;91694.91;;;1.27;100.00
9738;BME280;4908;47.446;13.900;2024-01-06T15:34:28;91688.19;;;1.30;100.00
9738;BME280;4908;47.446;13.900;2024-01-06T15:36:55;91693.44;;;1.30;100.00
9738;BME280;4908;47.446;13.900;2024-01-06T15:39:22;91693.50;;;1.33;100.00
9738;BME280;4908;47.446;13.900;2024-01-06T15:41:50;91697.94;;;1.29;100.00
9738;BME280;4908;47.446;13.900;2024-01-06T15:44:17;91692.69;;;1.29;100.00
9738;BME280;4908;47.446;13.900;2024-01-06T15:46:45;91692.31;;;1.31;100.00
9738;BME280;4908;47.446;13.900;2024-01-06T15:49:12;91697.41;;;1.20;100.00
9738;BME280;4908;47.446;13.900;2024-01-06T15:51:39;91695.06;;;1.15;100.00
9738;BME280;4908;47.446;13.900;2024-01-06T15:54:07;91696.19;;;1.14;100.00
9738;BME280;4908;47.446;13.900;2024-01-06T15:56:34;91699.22;;;1.16;100.00
9738;BME280;4908;47.446;13.900;2024-01-06T15:59:01;91708.28;;;1.19;100.00
9738;BME280;4908;47.446;13.900;2024-01-06T16:01:28;91699.97;;;1.17;100.00
9738;BME280;4908;47.446;13.900;2024-01-06T16:03:56;91707.63;;;1.22;100.00
9738;BME280;4908;47.446;13.900;2024-01-06T16:06:23;91707.00;;;1.09;100.00
9738;BME280;4908;47.446;13.900;2024-01-06T16:08:50;91702.78;;;1.05;100.00
9738;BME280;4908;47.446;13.900;2024-01-06T16:11:17;91703.63;;;1.09;100.00
9738;BME280;4908;47.446;13.900;2024-01-06T16:13:44;91701.38;;;1.11;100.00
9738;BME280;4908;47.446;13.900;2024-01-06T16:16:12;91703.63;;;1.09;100.00
9738;BME280;4908;47.446;13.900;2024-01-06T16:18:40;91701.38;;;1.11;100.00
9738;BME280;4908;47.446;13.900;2024-01-06T16:21:08;91711.94;;;1.11;100.00
9738;BME280;4908;47.446;13.900;2024-01-06T16:23:35;91707.41;;;1.11;100.00
9738;BME280;4908;47.446;13.900;2024-01-06T16:26:03;91700.69;;;1.14;100.00
9738;BME280;4908;47.446;13.900;2024-01-06T16:28:30;91709.00;;;1.16;100.00
9738;BME280;4908;47.446;13.900;2024-01-06T16:30:57;91714.28;;;1.16;100.00
9738;BME280;4908;47.446;13.900;2024-01-06T16:33:23;91702.19;;;1.15;100.00
9738;BME280;4908;47.446;13.900;2024-01-06T16:35:52;91709.72;;;1.13;100.00
9738;BME280;4908;47.446;13.900;2024-01-06T16:38:21;91712.00;;;1.14;100.00
9738;BME280;4908;47.446;13.900;2024-01-06T16:40:48;91703.31;;;1.14;100.00
9738;BME280;4908;47.446;13.900;2024-01-06T16:43:15;91709.34;;;1.14;100.00
9738;BME280;4908;47.446;13.900;2024-01-06T16:45:42;91708.16;;;1.12;100.00
9738;BME280;4908;47.446;13.900;2024-01-06T16:48:09;91710.09;;;1.15;100.00
9738;BME280;4908;47.446;13.900;2024-01-06T16:50:37;91712.00;;;1.14;100.00
9738;BME280;4908;47.446;13.900;2024-01-06T16:53:04;91709.00;;;1.16;100.00
9738;BME280;4908;47.446;13.900;2024-01-06T16:55:32;91707.00;;;0.90;100.00
9738;BME280;4908;47.446;13.900;2024-01-06T16:57:59;91713.47;;;0.73;100.00
9738;BME280;4908;47.446;13.900;2024-01-06T17:00:28;91714.72;;;0.79;100.00
9738;BME280;4908;47.446;13.900;2024-01-06T17:02:55;91713.72;;;0.87;100.00
9738;BME280;4908;47.446;13.900;2024-01-06T17:05:22;91712.34;;;0.93;100.00
9738;BME280;4908;47.446;13.900;2024-01-06T17:07:49;91712.50;;;1.01;100.00
9738;BME280;4908;47.446;13.900;2024-01-06T17:10:16;91706.81;;;0.99;100.00
9738;BME280;4908;47.446;13.900;2024-01-06T17:12:46;91706.22;;;0.89;100.00
9738;BME280;4908;47.446;13.900;2024-01-06T17:15:13;91712.09;;;0.79;100.00
9738;BME280;4908;47.446;13.900;2024-01-06T17:17:41;91720.13;;;0.86;100.00
9738;BME280;4908;47.446;13.900;2024-01-06T17:20:08;91721.06;;;0.78;100.00
9738;BME280;4908;47.446;13.900;2024-01-06T17:22:36;91716.22;;;0.80;100.00
9738;BME280;4908;47.446;13.900;2024-01-06T17:25:04;91717.47;;;0.86;100.00
9738;BME280;4908;47.446;13.900;2024-01-06T17:27:35;91717.53;;;0.90;100.00
9738;BME280;4908;47.446;13.900;2024-01-06T17:30:05;91724.41;;;0.95;100.00
9738;BME280;4908;47.446;13.900;2024-01-06T17:32:35;91719.56;;;0.97;100.00
9738;BME280;4908;47.446;13.900;2024-01-06T17:35:04;91721.50;;;1.00;100.00
9738;BME280;4908;47.446;13.900;2024-01-06T17:37:32;91728.31;;;1.01;100.00
9738;BME280;4908;47.446;13.900;2024-01-06T17:39:59;91728.72;;;1.03;100.00
9738;BME280;4908;47.446;13.900;2024-01-06T17:42:26;91720.81;;;1.03;100.00
9738;BME280;4908;47.446;13.900;2024-01-06T17:44:53;91723.09;;;0.85;100.00
9738;BME280;4908;47.446;13.900;2024-01-06T17:47:22;91726.88;;;0.68;100.00
9738;BME280;4908;47.446;13.900;2024-01-06T17:49:49;91729.34;;;0.77;100.00
9738;BME280;4908;47.446;13.900;2024-01-06T17:52:16;91730.16;;;0.81;100.00
9738;BME280;4908;47.446;13.900;2024-01-06T17:54:43;91729.41;;;0.80;100.00
9738;BME280;4908;47.446;13.900;2024-01-06T17:57:10;91736.94;;;0.82;100.00
9738;BME280;4908;47.446;13.900;2024-01-06T17:59:43;91734.41;;;0.85;100.00
9738;BME280;4908;47.446;13.900;2024-01-06T18:02:10;91731.13;;;0.92;100.00
9738;BME280;4908;47.446;13.900;2024-01-06T18:04:38;91740.28;;;0.79;100.00
9738;BME280;4908;47.446;13.900;2024-01-06T18:07:05;91727.66;;;0.69;100.00
9738;BME280;4908;47.446;13.900;2024-01-06T18:09:33;91729.69;;;0.75;100.00
9738;BME280;4908;47.446;13.900;2024-01-06T18:12:00;91727.06;;;0.75;100.00
9738;BME280;4908;47.446;13.900;2024-01-06T18:14:27;91731.91;;;0.73;100.00
9738;BME280;4908;47.446;13.900;2024-01-06T18:17:00;91736.13;;;0.78;100.00
9738;BME280;4908;47.446;13.900;2024-01-06T18:19:28;91731.78;;;0.85;100.00
9738;BME280;4908;47.446;13.900;2024-01-06T18:21:56;91726.50;;;0.85;100.00
9738;BME280;4908;47.446;13.900;2024-01-06T18:24:23;91738.63;;;0.90;100.00
9738;BME280;4908;47.446;13.900;2024-01-06T18:26:50;91734.66;;;1.00;100.00
9738;BME280;4908;47.446;13.900;2024-01-06T18:29:17;91741.69;;;0.92;100.00
9738;BME280;4908;47.446;13.900;2024-01-06T18:31:47;91746.47;;;0.86;100.00
9738;BME280;4908;47.446;13.900;2024-01-06T18:34:14;91744.44;;;0.80;100.00
9738;BME280;4908;47.446;13.900;2024-01-06T18:36:41;91752.00;;;0.81;100.00
9738;BME280;4908;47.446;13.900;2024-01-06T18:39:09;91743.53;;;0.72;100.00
9738;BME280;4908;47.446;13.900;2024-01-06T18:41:37;91743.00;;;0.82;100.00
9738;BME280;4908;47.446;13.900;2024-01-06T18:44:05;91743.69;;;0.79;100.00
9738;BME280;4908;47.446;13.900;2024-01-06T18:46:35;91746.16;;;0.72;100.00
9738;BME280;4908;47.446;13.900;2024-01-06T18:49:03;91737.59;;;0.75;100.00
9738;BME280;4908;47.446;13.900;2024-01-06T18:51:30;91747.50;;;0.82;100.00
9738;BME280;4908;47.446;13.900;2024-01-06T18:54:02;91737.72;;;0.82;100.00
9738;BME280;4908;47.446;13.900;2024-01-06T18:56:30;91734.78;;;0.87;100.00
9738;BME280;4908;47.446;13.900;2024-01-06T18:58:57;91739.75;;;0.89;100.00
9738;BME280;4908;47.446;13.900;2024-01-06T19:01:24;91745.34;;;0.87;100.00
9738;BME280;4908;47.446;13.900;2024-01-06T19:03:52;91737.84;;;0.89;100.00
9738;BME280;4908;47.446;13.900;2024-01-06T19:06:19;91737.03;;;0.85;100.00
9738;BME280;4908;47.446;13.900;2024-01-06T19:08:46;91735.78;;;0.99;100.00
9738;BME280;4908;47.446;13.900;2024-01-06T19:11:13;91734.41;;;0.85;100.00
9738;BME280;4908;47.446;13.900;2024-01-06T19:13:42;91740.06;;;0.87;100.00
9738;BME280;4908;47.446;13.900;2024-01-06T19:16:10;91732.44;;;0.82;100.00
9738;BME280;4908;47.446;13.900;2024-01-06T19:18:37;91732.31;;;0.75;100.00
9738;BME280;4908;47.446;13.900;2024-01-06T19:21:04;91732.22;;;0.72;100.00
9738;BME280;4908;47.446;13.900;2024-01-06T19:23:32;91734.66;;;0.80;100.00
9738;BME280;4908;47.446;13.900;2024-01-06T19:26:01;91734.00;;;0.83;100.00
9738;BME280;4908;47.446;13.900;2024-01-06T19:28:28;91729.13;;;1.05;100.00
9738;BME280;4908;47.446;13.900;2024-01-06T19:30:56;91732.75;;;0.97;100.00
9738;BME280;4908;47.446;13.900;2024-01-06T19:33:24;91735.44;;;0.81;100.00
9738;BME280;4908;47.446;13.900;2024-01-06T19:35:53;91734.47;;;0.70;100.00
9738;BME280;4908;47.446;13.900;2024-01-06T19:38:20;91732.75;;;0.77;100.00
9738;BME280;4908;47.446;13.900;2024-01-06T19:40:47;91733.22;;;0.83;100.00
9738;BME280;4908;47.446;13.900;2024-01-06T19:43:14;91734.00;;;0.83;100.00
9738;BME280;4908;47.446;13.900;2024-01-06T19:45:41;91734.66;;;0.61;100.00
9738;BME280;4908;47.446;13.900;2024-01-06T19:48:10;91736.47;;;0.76;100.00
9738;BME280;4908;47.446;13.900;2024-01-06T19:50:36;91740.13;;;0.72;100.00
9738;BME280;4908;47.446;13.900;2024-01-06T19:53:04;91728.31;;;0.81;100.00
9738;BME280;4908;47.446;13.900;2024-01-06T19:55:31;91732.31;;;0.75;100.00
9738;BME280;4908;47.446;13.900;2024-01-06T19:57:58;91737.66;;;0.79;100.00
9738;BME280;4908;47.446;13.900;2024-01-06T20:00:25;91733.22;;;0.83;100.00
9738;BME280;4908;47.446;13.900;2024-01-06T20:02:52;91741.44;;;0.62;100.00
9738;BME280;4908;47.446;13.900;2024-01-06T20:05:21;91735.06;;;0.63;100.00
9738;BME280;4908;47.446;13.900;2024-01-06T20:07:48;91734.38;;;0.66;100.00
9738;BME280;4908;47.446;13.900;2024-01-06T20:10:15;91723.84;;;0.66;100.00
9738;BME280;4908;47.446;13.900;2024-01-06T20:12:42;91731.47;;;0.71;100.00
9738;BME280;4908;47.446;13.900;2024-01-06T20:15:09;91726.28;;;0.75;100.00
9738;BME280;4908;47.446;13.900;2024-01-06T20:17:36;91731.63;;;0.78;100.00
9738;BME280;4908;47.446;13.900;2024-01-06T20:20:04;91727.88;;;0.79;100.00
9738;BME280;4908;47.446;13.900;2024-01-06T20:22:35;91729.38;;;0.61;100.00
9738;BME280;4908;47.446;13.900;2024-01-06T20:25:02;91732.22;;;0.72;100.00
9738;BME280;4908;47.446;13.900;2024-01-06T20:27:29;91735.78;;;0.79;100.00
9738;BME280;4908;47.446;13.900;2024-01-06T20:29:56;91734.00;;;0.83;100.00